• Join FlightAware (Why Join?)
  • Login
  • US Flag 
12:39AM EDT


 

Airport Tracker/Info


-or-


 

Live Flight TrackerFlight Track Log ✈ VH-JVB ✈ 11-May-2012 ✈ YPDN / DRW - YTNK / TCA

Flight Track Log - Related Links

Times and Time Zones

All times are in EDT time to prevent confusion due to time zone crossing. See the VH-JVB flight status page for this flight to view local times or setup timezone preferences in your user account.

Time Position Orientation Groundspeed Altitude Reporting Facility
EDT Latitude Longitude Course Direction KTS MPH feet Rate Location/Type
05:39PM -12.4266 130.9132 174° South 127 146 1,700  Level Aus ATC (RADAR)
05:41PM -12.4795 130.9185 197° South 152 175 4,200 1,740 Climbing Aus ATC (RADAR)
05:42PM -12.5120 130.9087 189° South 142 163 5,800 1,620 Climbing Aus ATC (RADAR)
05:42PM -12.5365 130.9046 139° Southeast 148 170 6,600 1,320 Climbing Aus ATC (RADAR)
05:43PM -12.5606 130.9260 151° Southeast 138 159 7,600 1,440 Climbing Aus ATC (RADAR)
05:44PM -12.5846 130.9393 134° Southeast 160 184 8,500 1,620 Climbing Aus ATC (RADAR)
05:44PM -12.6028 130.9588 142° Southeast 156 180 9,500 1,620 Climbing Aus ATC (RADAR)
05:45PM -12.6235 130.9757 142° Southeast 153 176 10,400 1,560 Climbing Aus ATC (RADAR)
05:46PM -12.6605 131.0058 151° Southeast 162 186 12,000 1,560 Climbing Aus ATC (RADAR)
05:47PM -12.6965 131.0265 156° South 172 198 13,300 1,440 Climbing Aus ATC (RADAR)
05:47PM -12.7232 131.0389 153° Southeast 173 199 14,100 1,500 Climbing Aus ATC (RADAR)
05:48PM -12.7578 131.0566 154° Southeast 177 204 15,300 1,500 Climbing Aus ATC (RADAR)
05:49PM -12.7854 131.0702 153° Southeast 180 207 16,100 1,500 Climbing Aus ATC (RADAR)
05:49PM -12.8197 131.0884 155° Southeast 176 203 17,300 1,440 Climbing Aus ATC (RADAR)
05:50PM -12.8665 131.1108 153° Southeast 176 203 18,600 1,080 Climbing Aus ATC (RADAR)
05:52PM -12.9370 131.1481 155° Southeast 187 215 20,100 960 Climbing Aus ATC (RADAR)
05:53PM -12.9932 131.1750 153° Southeast 200 230 21,200 1,020 Climbing Aus ATC (RADAR)
05:54PM -13.0329 131.1959 153° Southeast 204 235 22,000 1,020 Climbing Aus ATC (RADAR)
05:54PM -13.0626 131.2116 154° Southeast 198 228 22,600 900 Climbing Aus ATC (RADAR)
05:55PM -13.1013 131.2309 154° Southeast 198 228 23,200 780 Climbing Aus ATC (RADAR)
05:57PM -13.2091 131.2846 153° Southeast 211 243 24,800 600 Climbing Aus ATC (RADAR)
05:58PM -13.2653 131.3141 155° Southeast 227 261 25,100 60 Climbing Aus ATC (RADAR)
05:59PM -13.3131 131.3371 155° Southeast 251 289 25,000 -120 Descending Aus ATC (RADAR)
05:59PM -13.3520 131.3561 154° Southeast 259 298 25,000  Level Aus ATC (RADAR)
06:00PM -13.3745 131.3672 153° Southeast 262 302 25,000  Level Aus ATC (RADAR)
06:00PM -13.3972 131.3792 153° Southeast 266 306 25,000  Level Aus ATC (RADAR)
06:02PM -13.4547 131.4090 152° Southeast 271 312 25,000  Level Aus ATC (RADAR)
06:03PM -13.5067 131.4370 156° South 275 316 25,000  Level Aus ATC (RADAR)
06:04PM -13.5733 131.4678 152° Southeast 280 322 25,000  Level Aus ATC (RADAR)
06:04PM -13.6258 131.4967 153° Southeast 280 322 25,000  Level Aus ATC (RADAR)
06:05PM -13.6914 131.5305 153° Southeast 279 321 25,000  Level Aus ATC (RADAR)
06:07PM -13.8637 131.6192 154° Southeast 279 321 25,000  Level Aus ATC (RADAR)
06:08PM -13.9475 131.6615 153° Southeast 282 325 25,000  Level Aus ATC (RADAR)
06:09PM -14.0008 131.6896 154° Southeast 280 322 25,000  Level Aus ATC (RADAR)
06:09PM -14.0485 131.7139 153° Southeast 281 323 25,000  Level Aus ATC (RADAR)
06:10PM -14.0958 131.7387 154° Southeast 280 322 25,000  Level Aus ATC (RADAR)
06:12PM -14.2282 131.8052 154° Southeast 284 327 25,000  Level Aus ATC (RADAR)
06:13PM -14.3072 131.8446 154° Southeast 286 329 25,000  Level Aus ATC (RADAR)
06:14PM -14.3618 131.8721 153° Southeast 286 329 25,000  Level Aus ATC (RADAR)
06:14PM -14.4099 131.8976 154° Southeast 285 328 25,000  Level Aus ATC (RADAR)
06:15PM -14.4524 131.9188 154° Southeast 285 328 25,000  Level Aus ATC (RADAR)
06:15PM -14.4949 131.9403 152° Southeast 286 329 25,000  Level Aus ATC (RADAR)
06:16PM -14.5783 131.9865 156° South 284 327 25,000  Level Aus ATC (RADAR)
06:17PM -14.6344 132.0119 152° Southeast 287 330 25,000  Level Aus ATC (RADAR)
06:18PM -14.6821 132.0387 153° Southeast 287 330 25,000  Level Aus ATC (RADAR)
06:19PM -14.7371 132.0673 155° Southeast 291 335 25,000  Level Aus ATC (RADAR)
06:19PM -14.7799 132.0876 151° Southeast 286 329 25,000  Level Aus ATC (RADAR)
06:20PM -14.8334 132.1185 154° Southeast 289 333 25,000  Level Aus ATC (RADAR)
06:22PM -14.9496 132.1771 154° Southeast 288 331 25,000  Level Aus ATC (RADAR)
06:22PM -15.0110 132.2086 156° South 289 333 25,000  Level Aus ATC (RADAR)
06:23PM -15.0554 132.2295 151° Southeast 296 341 25,000  Level Aus ATC (RADAR)
06:24PM -15.1085 132.2594 153° Southeast 289 333 25,000  Level Aus ATC (RADAR)
06:24PM -15.1514 132.2822 155° Southeast 290 334 25,000  Level Aus ATC (RADAR)
06:25PM -15.2074 132.3097 154° Southeast 291 335 25,000  Level Aus ATC (RADAR)
06:27PM -15.3429 132.3789 151° Southeast 293 337 25,000  Level Aus ATC (RADAR)
06:28PM -15.4217 132.4236 153° Southeast 293 337 25,000  Level Aus ATC (RADAR)
06:29PM -15.4770 132.4531 156° South 295 339 25,000  Level Aus ATC (RADAR)
06:29PM -15.5204 132.4728 154° Southeast 291 335 25,000  Level Aus ATC (RADAR)
06:30PM -15.5695 132.4980 152° Southeast 292 336 25,000  Level Aus ATC (RADAR)
06:32PM -15.6913 132.5657 158° South 296 341 25,000  Level Aus ATC (RADAR)
06:32PM -15.7291 132.5815 153° Southeast 296 341 25,000  Level Aus ATC (RADAR)
06:33PM -15.7961 132.6167 152° Southeast 290 334 25,000  Level Aus ATC (RADAR)
06:34PM -15.8574 132.6507 154° Southeast 296 341 25,000  Level Aus ATC (RADAR)
06:34PM -15.9007 132.6724 152° Southeast 293 337 25,000  Level Aus ATC (RADAR)
06:35PM -15.9611 132.7054 153° Southeast 290 334 25,000  Level Aus ATC (RADAR)
06:37PM -16.0845 132.7710 155° Southeast 289 333 25,000  Level Aus ATC (RADAR)
06:38PM -16.1597 132.8077 156° South 297 342 25,000  Level Aus ATC (RADAR)
06:39PM -16.2158 132.8341 153° Southeast 293 337 25,000  Level Aus ATC (RADAR)
06:39PM -16.2582 132.8571 151° Southeast 290 334 25,000  Level Aus ATC (RADAR)
06:40PM -16.3003 132.8819 154° Southeast 295 339 25,000  Level Aus ATC (RADAR)
06:40PM -16.3438 132.9044 153° Southeast 297 342 25,000  Level Aus ATC (RADAR)
06:41PM -16.3868 132.9275 151° Southeast 294 338 25,000  Level Aus ATC (RADAR)
06:42PM -16.4778 132.9792 156° South 294 338 25,000  Level Aus ATC (RADAR)
06:43PM -16.5595 133.0165 150° Southeast 292 336 25,000  Level Aus ATC (RADAR)
06:44PM -16.6136 133.0491 153° Southeast 294 338 25,000  Level Aus ATC (RADAR)
06:45PM -16.6505 133.0687 156° South 294 338 25,000  Level Aus ATC (RADAR)
06:45PM -16.7201 133.1012 154° Southeast 296 341 25,000  Level Aus ATC (RADAR)
06:47PM -16.8458 133.1648 150° Southeast 265 305 25,000  Level Aus ATC (RADAR)
06:48PM -16.8818 133.1864 148° Southeast 279 321 25,100  Climbing Aus ATC (RADAR)
06:48PM -16.9254 133.2147 161° South 304 350 25,000 -120 Descending Aus ATC (RADAR)
06:49PM -16.9847 133.2361 168° South 299 344 25,000  Level Aus ATC (RADAR)
06:50PM -17.0398 133.2489 163° South 298 343 25,000  Level Aus ATC (RADAR)
06:50PM -17.0998 133.2677 160° South 298 343 25,000  Level Aus ATC (RADAR)
06:54PM -17.3883 133.3789 162° South 304 350 25,000  Level Aus ATC (RADAR)
06:58PM -17.7331 133.4968 162° South 285 328 25,100  Climbing Aus ATC (RADAR)
07:02PM -18.0175 133.5957 161° South 25,000 -60 Descending Aus ATC (Calculated)
07:05PM -18.2790 133.6900 161° South 25,000 -4,140 Level Aus ATC (Calculated)
07:08PM -18.4359 133.7468 360° North 1,300 -10,200 Descending Aus ATC (Calculated)
07:08PM -18.4359 133.7468 161° South 1,300  Level Aus ATC (Calculated)
07:09PM -18.5311 133.7812 161° South  Level Estimated
07:10PM -18.6685 133.8307 161° South  Level FlightAware Approximate
07:12PM -18.7357 133.8549 161° South 1,300  Level Aus ATC (Calculated)
07:13PM -18.8380 133.8921 161° South  Level Estimated
07:14PM -18.9557 133.9346 161° South  Level FlightAware Approximate
07:15PM -19.0262 133.9603 161° South  Level Estimated
07:16PM -19.0925 133.9842 161° South  Level FlightAware Approximate
07:17PM -19.1630 134.0100 161° South  Level Estimated
07:18PM -19.2429 134.0388 161° South  Level FlightAware Approximate
07:19PM -19.3133 134.0648 161° South  Level Estimated
07:20PM -19.3796 134.0886 161° South  Level FlightAware Approximate
07:22PM -19.4662 134.1201 161° South 1,300  Level Aus ATC (Calculated)
07:23PM -19.5740 134.1606 160° South  Level Estimated
07:24PM -19.6443 134.1871 340° North  Level Estimated
07:25PM -19.6345 134.1833 340° North  Level FlightAware Approximate